createdAt,value
2018-03-27T00:01:21.257Z,90.70
2018-03-27T00:03:49.499Z,90.80
2018-03-27T00:06:16.982Z,90.80
2018-03-27T00:08:45.210Z,91.00
2018-03-27T00:11:12.692Z,90.90
2018-03-27T00:13:40.154Z,91.00
2018-03-27T00:16:07.655Z,90.90
2018-03-27T00:18:35.140Z,90.80
2018-03-27T00:21:02.636Z,90.80
2018-03-27T00:23:30.176Z,90.80
2018-03-27T00:25:57.775Z,90.80
2018-03-27T00:28:38.058Z,90.80
2018-03-27T00:31:17.605Z,90.80
2018-03-27T00:33:57.002Z,90.80
2018-03-27T00:36:37.243Z,90.80
2018-03-27T00:39:16.602Z,90.70
2018-03-27T00:44:55.689Z,90.60
2018-03-27T00:47:23.196Z,90.50
2018-03-27T00:49:50.698Z,90.60
2018-03-27T00:52:18.163Z,90.80
2018-03-27T00:54:45.641Z,90.60
2018-03-27T00:57:13.105Z,90.70
2018-03-27T00:59:40.588Z,90.80
2018-03-27T01:02:08.055Z,90.80
2018-03-27T01:04:36.309Z,91.10
2018-03-27T01:07:03.774Z,91.00
2018-03-27T01:09:31.258Z,91.20
2018-03-27T01:11:59.476Z,91.40
2018-03-27T01:14:26.980Z,91.40
2018-03-27T01:16:55.214Z,91.70
2018-03-27T01:19:22.669Z,91.60
2018-03-27T01:21:50.164Z,91.70
2018-03-27T01:24:19.167Z,91.70
2018-03-27T01:26:47.397Z,91.90
2018-03-27T01:29:14.871Z,91.90
2018-03-27T01:31:42.354Z,92.10
2018-03-27T01:34:09.833Z,92.20
2018-03-27T01:36:37.319Z,92.30
2018-03-27T01:39:05.749Z,92.30
2018-03-27T01:41:34.001Z,92.30
2018-03-27T01:44:01.487Z,92.30
2018-03-27T01:46:28.991Z,92.30
2018-03-27T01:48:56.446Z,92.20
2018-03-27T01:51:23.922Z,92.20
2018-03-27T01:53:51.369Z,92.20
2018-03-27T01:56:18.861Z,92.20
2018-03-27T01:58:46.339Z,92.10
2018-03-27T02:01:13.847Z,92.10
2018-03-27T02:03:41.350Z,92.10
2018-03-27T02:06:09.698Z,92.10
2018-03-27T02:08:37.159Z,92.10
2018-03-27T02:11:10.266Z,92.10
2018-03-27T02:13:43.378Z,92.10
2018-03-27T02:16:17.263Z,92.00
2018-03-27T02:18:50.523Z,92.00
2018-03-27T02:21:23.848Z,92.10
2018-03-27T02:23:51.970Z,92.30
2018-03-27T02:26:19.450Z,92.50
2018-03-27T02:28:46.964Z,92.60
2018-03-27T02:31:14.503Z,93.20
2018-03-27T02:33:41.978Z,93.10
2018-03-27T02:36:09.434Z,93.10
2018-03-27T02:38:36.942Z,93.20
2018-03-27T02:41:04.403Z,93.30
2018-03-27T02:43:31.890Z,93.50
2018-03-27T02:46:00.135Z,93.80
2018-03-27T02:48:27.626Z,93.50
2018-03-27T02:50:55.883Z,93.60
2018-03-27T02:53:23.386Z,93.60
2018-03-27T02:55:50.851Z,93.70
2018-03-27T02:58:18.334Z,93.70
2018-03-27T03:00:45.811Z,93.60
2018-03-27T03:03:13.269Z,93.60
2018-03-27T03:05:41.534Z,93.70
2018-03-27T03:08:08.991Z,93.70
2018-03-27T03:10:36.473Z,93.70
2018-03-27T03:13:03.949Z,93.70
2018-03-27T03:15:32.190Z,93.70
2018-03-27T03:17:59.657Z,93.70
2018-03-27T03:20:27.144Z,93.70
2018-03-27T03:22:55.406Z,93.70
2018-03-27T03:25:22.906Z,93.70
2018-03-27T03:27:50.391Z,93.80
2018-03-27T03:30:17.863Z,93.80
2018-03-27T03:32:45.328Z,93.90
2018-03-27T03:35:12.827Z,94.10
2018-03-27T03:37:40.319Z,94.10
2018-03-27T03:40:07.776Z,94.30
2018-03-27T03:42:35.281Z,94.30
2018-03-27T03:45:03.493Z,94.50
2018-03-27T03:47:30.961Z,94.50
2018-03-27T03:49:58.429Z,94.60
2018-03-27T03:52:25.907Z,94.70
2018-03-27T03:54:53.385Z,94.70
2018-03-27T03:57:21.635Z,94.90
2018-03-27T03:59:49.083Z,94.90
2018-03-27T04:02:16.561Z,94.80
2018-03-27T04:04:44.046Z,94.90
2018-03-27T04:07:11.525Z,94.70
2018-03-27T04:09:39.031Z,95.00
2018-03-27T04:12:06.518Z,95.00
2018-03-27T04:14:33.972Z,95.00
2018-03-27T04:17:02.218Z,95.10
2018-03-27T04:19:29.683Z,95.10
2018-03-27T04:21:57.168Z,95.10
2018-03-27T04:24:24.622Z,95.10
2018-03-27T04:26:52.882Z,95.20
2018-03-27T04:29:21.114Z,95.20
2018-03-27T04:31:48.587Z,95.20
2018-03-27T04:34:16.065Z,95.20
2018-03-27T04:36:43.530Z,95.20
2018-03-27T04:39:11.784Z,95.20
2018-03-27T04:41:39.262Z,95.20
2018-03-27T04:44:06.735Z,95.20
2018-03-27T04:46:34.970Z,95.30
2018-03-27T04:49:02.541Z,95.30
2018-03-27T04:51:30.040Z,95.30
2018-03-27T04:53:57.504Z,95.30
2018-03-27T04:56:24.987Z,95.30
2018-03-27T04:58:52.474Z,95.30
2018-03-27T05:01:19.943Z,95.30
2018-03-27T05:03:47.446Z,95.30
2018-03-27T05:06:14.911Z,95.40
2018-03-27T05:08:42.387Z,95.30
2018-03-27T05:11:09.878Z,95.50
2018-03-27T05:13:37.345Z,95.40
2018-03-27T05:16:05.581Z,95.40
2018-03-27T05:18:33.081Z,95.40
2018-03-27T05:21:01.301Z,95.30
2018-03-27T05:23:28.800Z,95.30
2018-03-27T05:25:56.273Z,95.20
2018-03-27T05:28:24.503Z,95.10
2018-03-27T05:30:51.996Z,95.00
2018-03-27T05:33:19.459Z,95.00
2018-03-27T05:35:47.744Z,95.00
2018-03-27T05:38:16.205Z,95.50
2018-03-27T05:40:43.717Z,95.40
2018-03-27T05:43:11.165Z,95.20
2018-03-27T05:45:38.659Z,94.70
2018-03-27T05:48:06.136Z,94.30
2018-03-27T05:50:33.644Z,94.10
2018-03-27T05:53:01.121Z,94.20
2018-03-27T05:55:28.583Z,93.90
2018-03-27T05:57:56.074Z,93.70
2018-03-27T06:00:24.351Z,93.40
2018-03-27T06:02:52.567Z,93.00
2018-03-27T06:05:20.026Z,93.00
2018-03-27T06:07:47.499Z,92.70
2018-03-27T06:10:14.980Z,92.70
2018-03-27T06:12:42.475Z,92.50
2018-03-27T06:15:10.694Z,92.90
2018-03-27T06:17:38.270Z,92.90
2018-03-27T06:20:06.510Z,92.60
2018-03-27T06:22:33.996Z,92.60
2018-03-27T06:25:01.464Z,92.50
2018-03-27T06:27:29.723Z,92.20
2018-03-27T06:29:57.228Z,92.20
2018-03-27T06:32:25.480Z,92.00
2018-03-27T06:34:52.964Z,92.00
2018-03-27T06:37:21.182Z,92.10
2018-03-27T06:39:48.675Z,92.10
2018-03-27T06:42:16.216Z,92.30
2018-03-27T06:44:43.665Z,92.40
2018-03-27T06:47:11.148Z,92.60
2018-03-27T06:49:39.370Z,93.10
2018-03-27T06:52:06.866Z,93.10
2018-03-27T06:54:34.341Z,93.40
2018-03-27T06:57:01.825Z,93.60
2018-03-27T06:59:29.283Z,93.80
2018-03-27T07:01:56.922Z,93.90
2018-03-27T07:04:24.377Z,93.80
2018-03-27T07:06:52.637Z,94.00
2018-03-27T07:09:20.129Z,93.70
2018-03-27T07:11:47.619Z,93.50
2018-03-27T07:14:15.129Z,93.50
2018-03-27T07:16:42.590Z,93.30
2018-03-27T07:19:10.839Z,93.00
2018-03-27T07:21:38.434Z,92.90
2018-03-27T07:24:06.689Z,92.60
2018-03-27T07:26:34.155Z,92.60
2018-03-27T07:29:01.702Z,92.30
2018-03-27T07:31:29.195Z,92.10
2018-03-27T07:33:56.703Z,92.00
2018-03-27T07:36:24.199Z,91.60
2018-03-27T07:38:52.429Z,90.80
2018-03-27T07:41:19.923Z,91.10
2018-03-27T07:43:47.377Z,90.30
2018-03-27T07:46:14.862Z,90.10
2018-03-27T07:48:42.392Z,89.50
2018-03-27T07:51:09.878Z,88.00
2018-03-27T07:53:37.339Z,82.70
2018-03-27T07:56:04.830Z,84.40
2018-03-27T07:58:32.320Z,84.10
2018-03-27T08:00:59.798Z,83.30
2018-03-27T08:03:28.056Z,79.90
2018-03-27T08:05:57.051Z,79.10
2018-03-27T08:08:24.570Z,79.10
2018-03-27T08:10:52.050Z,79.40
2018-03-27T08:13:19.552Z,76.70
2018-03-27T08:15:47.036Z,74.30
2018-03-27T08:18:14.536Z,72.40
2018-03-27T08:20:42.005Z,71.90
2018-03-27T08:23:10.345Z,70.80
2018-03-27T08:25:37.806Z,70.70
2018-03-27T08:28:05.338Z,69.70
2018-03-27T08:30:32.797Z,70.20
2018-03-27T08:33:00.380Z,70.10
2018-03-27T08:35:27.885Z,68.50
2018-03-27T08:37:56.113Z,67.70
2018-03-27T08:40:23.592Z,67.60
2018-03-27T08:42:51.075Z,63.50
2018-03-27T08:45:18.564Z,63.40
2018-03-27T08:47:46.078Z,65.40
2018-03-27T08:50:14.365Z,64.10
2018-03-27T08:52:42.618Z,62.50
2018-03-27T08:55:10.112Z,61.80
2018-03-27T08:57:37.573Z,62.00
2018-03-27T09:00:05.134Z,63.80
2018-03-27T09:02:32.569Z,63.50
2018-03-27T09:05:00.050Z,65.60
2018-03-27T09:07:27.545Z,65.70
2018-03-27T09:09:55.050Z,66.80
2018-03-27T09:12:23.322Z,70.20
2018-03-27T09:14:51.573Z,71.20
2018-03-27T09:17:20.580Z,70.30
2018-03-27T09:19:48.047Z,70.20
2018-03-27T09:22:15.592Z,69.60
2018-03-27T09:24:43.065Z,68.10
2018-03-27T09:27:11.349Z,66.60
2018-03-27T09:29:38.822Z,66.60
2018-03-27T09:32:06.307Z,63.40
2018-03-27T09:34:33.793Z,63.30
2018-03-27T09:37:01.267Z,62.90
2018-03-27T09:39:28.784Z,61.90
2018-03-27T09:41:56.242Z,60.00
2018-03-27T09:44:23.734Z,58.50
2018-03-27T09:46:51.206Z,58.20
2018-03-27T09:49:19.458Z,55.70
2018-03-27T09:51:46.933Z,55.50
2018-03-27T09:54:14.426Z,55.10
2018-03-27T09:56:41.932Z,54.20
2018-03-27T09:59:09.424Z,52.00
2018-03-27T10:01:39.800Z,53.40
2018-03-27T10:04:07.308Z,53.40
2018-03-27T10:06:35.542Z,53.00
2018-03-27T10:09:03.769Z,53.10
2018-03-27T10:11:31.278Z,53.10
2018-03-27T10:13:58.742Z,52.80
2018-03-27T10:16:26.284Z,54.20
2018-03-27T10:18:53.762Z,54.50
2018-03-27T10:21:21.254Z,55.40
2018-03-27T10:23:48.728Z,54.50
2018-03-27T10:26:16.231Z,55.00
2018-03-27T10:28:43.701Z,55.80
2018-03-27T10:31:11.188Z,57.70
2018-03-27T10:33:39.437Z,58.80
2018-03-27T10:36:06.925Z,58.80
2018-03-27T10:38:35.189Z,68.20
2018-03-27T10:41:03.440Z,65.70
2018-03-27T10:43:30.959Z,65.60
2018-03-27T10:45:58.419Z,63.90
2018-03-27T10:48:25.907Z,64.50
2018-03-27T10:50:53.476Z,64.60
2018-03-27T10:53:20.972Z,60.90
2018-03-27T10:55:48.473Z,56.40
2018-03-27T10:58:15.969Z,56.00
2018-03-27T11:00:44.237Z,52.30
2018-03-27T11:03:11.729Z,52.30
2018-03-27T11:05:39.225Z,51.40
2018-03-27T11:08:06.700Z,53.10
2018-03-27T11:10:34.193Z,51.50
2018-03-27T11:13:02.492Z,53.50
2018-03-27T11:15:30.003Z,53.50
2018-03-27T11:17:57.467Z,51.60
2018-03-27T11:20:24.955Z,53.00
2018-03-27T11:22:52.458Z,52.70
2018-03-27T11:25:19.938Z,54.50
2018-03-27T11:27:48.588Z,51.80
2018-03-27T11:30:16.084Z,52.40
2018-03-27T11:32:45.267Z,50.60
2018-03-27T11:35:12.758Z,50.10
2018-03-27T11:37:41.038Z,50.60
2018-03-27T11:40:08.521Z,50.70
2018-03-27T11:42:35.996Z,50.80
2018-03-27T11:45:03.481Z,50.30
2018-03-27T11:47:30.978Z,49.40
2018-03-27T11:49:59.645Z,47.70
2018-03-27T11:52:27.130Z,48.30
2018-03-27T11:54:54.625Z,49.10
2018-03-27T11:57:22.121Z,48.80
2018-03-27T11:59:49.622Z,46.60
2018-03-27T12:02:17.113Z,44.60
2018-03-27T12:04:44.601Z,44.40
2018-03-27T12:07:12.103Z,44.40
2018-03-27T12:09:39.587Z,43.40
2018-03-27T12:12:07.074Z,43.70
2018-03-27T12:14:34.604Z,41.50
2018-03-27T12:17:02.098Z,40.40
2018-03-27T12:19:29.571Z,38.80
2018-03-27T12:21:57.086Z,37.10
2018-03-27T12:24:24.554Z,35.90
2018-03-27T12:26:52.819Z,36.30
2018-03-27T12:29:20.296Z,36.20
2018-03-27T12:31:48.555Z,38.20
2018-03-27T12:34:16.783Z,39.90
2018-03-27T12:36:44.293Z,39.50
2018-03-27T12:39:11.753Z,40.20
2018-03-27T12:41:40.018Z,41.00
2018-03-27T12:44:07.502Z,41.00
2018-03-27T12:46:35.722Z,40.10
2018-03-27T12:49:03.234Z,40.00
2018-03-27T12:51:31.511Z,33.10
2018-03-27T12:53:59.757Z,28.20
2018-03-27T12:56:27.226Z,28.20
2018-03-27T12:58:54.756Z,23.90
2018-03-27T13:01:23.384Z,19.60
2018-03-27T13:03:51.641Z,19.70
2018-03-27T13:06:19.132Z,19.70
2018-03-27T13:08:46.610Z,19.30
2018-03-27T13:11:14.121Z,19.40
2018-03-27T13:13:41.618Z,21.00
2018-03-27T13:16:09.211Z,23.10
2018-03-27T13:18:36.716Z,27.10
2018-03-27T13:21:04.987Z,31.30
2018-03-27T13:23:33.275Z,29.80
2018-03-27T13:26:00.742Z,29.80
2018-03-27T13:28:28.206Z,27.30
2018-03-27T13:30:55.760Z,24.80
2018-03-27T13:33:23.238Z,23.70
2018-03-27T13:35:50.749Z,24.50
2018-03-27T13:38:18.988Z,28.30
2018-03-27T13:40:46.482Z,28.20
2018-03-27T13:43:13.976Z,29.80
2018-03-27T13:45:41.487Z,29.00
2018-03-27T13:48:09.014Z,25.40
2018-03-27T13:50:36.478Z,22.20
2018-03-27T13:53:03.969Z,20.80
2018-03-27T13:55:32.221Z,22.30
2018-03-27T13:57:59.810Z,22.30
2018-03-27T14:00:28.059Z,20.90
2018-03-27T14:02:55.567Z,20.90
2018-03-27T14:05:23.054Z,20.80
2018-03-27T14:07:50.531Z,20.20
2018-03-27T14:10:18.036Z,21.60
2018-03-27T14:12:46.278Z,26.50
2018-03-27T14:15:15.305Z,29.50
2018-03-27T14:17:42.806Z,29.40
2018-03-27T14:20:10.288Z,31.10
2018-03-27T14:22:37.783Z,32.30
2018-03-27T14:25:05.274Z,34.40
2018-03-27T14:27:32.734Z,36.00
2018-03-27T14:30:00.257Z,37.40
2018-03-27T14:32:28.501Z,38.70
2018-03-27T14:34:56.036Z,38.70
2018-03-27T14:37:23.507Z,39.70
2018-03-27T14:39:51.014Z,40.10
2018-03-27T14:42:18.506Z,40.70
2018-03-27T14:44:45.967Z,40.20
2018-03-27T14:47:13.502Z,40.80
2018-03-27T14:49:40.985Z,41.30
2018-03-27T14:52:08.451Z,41.90
2018-03-27T14:54:35.949Z,42.40
2018-03-27T14:57:04.178Z,43.60
2018-03-27T14:59:31.714Z,43.60
2018-03-27T15:01:59.198Z,43.40
2018-03-27T15:04:26.698Z,43.90
2018-03-27T15:06:54.972Z,44.10
2018-03-27T15:09:23.248Z,44.80
2018-03-27T15:11:51.555Z,44.80
2018-03-27T15:14:19.056Z,44.80
2018-03-27T15:16:46.557Z,44.70
2018-03-27T15:19:14.067Z,45.10
2018-03-27T15:21:41.540Z,46.30
2018-03-27T15:24:09.030Z,45.60
2018-03-27T15:26:36.541Z,45.80
2018-03-27T15:29:04.024Z,46.10
2018-03-27T15:31:32.293Z,43.50
2018-03-27T15:33:59.756Z,43.20
2018-03-27T15:36:28.080Z,43.00
2018-03-27T15:38:55.570Z,43.00
2018-03-27T15:41:23.073Z,42.40
2018-03-27T15:43:50.591Z,42.30
2018-03-27T15:46:18.093Z,41.50
2018-03-27T15:48:45.600Z,41.30
2018-03-27T15:51:13.077Z,40.10
2018-03-27T15:53:40.701Z,39.00
2018-03-27T15:56:08.198Z,39.20
2018-03-27T15:58:35.692Z,39.10
2018-03-27T16:01:03.219Z,40.20
2018-03-27T16:03:30.786Z,41.10
2018-03-27T16:05:58.452Z,41.70
2018-03-27T16:08:26.760Z,41.60
2018-03-27T16:10:54.280Z,40.90
2018-03-27T16:13:21.909Z,40.80
2018-03-27T16:15:50.228Z,41.70
2018-03-27T16:18:18.482Z,42.20
2018-03-27T16:20:45.998Z,42.10
2018-03-27T16:23:13.614Z,43.10
2018-03-27T16:25:41.862Z,43.90
2018-03-27T16:28:09.364Z,43.80
2018-03-27T16:30:36.880Z,43.20
2018-03-27T16:33:04.867Z,43.70
2018-03-27T16:35:33.349Z,43.40
2018-03-27T16:38:01.636Z,45.30
2018-03-27T16:40:29.876Z,45.80
2018-03-27T16:42:57.418Z,45.80
2018-03-27T16:45:24.967Z,46.60
2018-03-27T16:47:52.520Z,47.40
2018-03-27T16:50:19.994Z,48.00
2018-03-27T16:52:47.541Z,48.70
2018-03-27T16:55:15.048Z,48.80
2018-03-27T16:57:42.528Z,49.00
2018-03-27T17:00:10.827Z,49.60
2018-03-27T17:02:38.363Z,49.50
2018-03-27T17:05:07.420Z,50.40
2018-03-27T17:07:34.894Z,50.40
2018-03-27T17:10:02.390Z,50.60
2018-03-27T17:12:29.921Z,50.80
2018-03-27T17:14:57.428Z,52.10
2018-03-27T17:17:24.925Z,51.70
2018-03-27T17:19:52.441Z,51.20
2018-03-27T17:22:19.949Z,51.20
2018-03-27T17:24:47.499Z,51.70
2018-03-27T17:27:14.977Z,51.50
2018-03-27T17:29:42.453Z,51.80
2018-03-27T17:32:10.763Z,52.60
2018-03-27T17:34:38.257Z,52.60
2018-03-27T17:37:05.817Z,52.60
2018-03-27T17:39:33.355Z,52.70
2018-03-27T17:42:00.910Z,52.60
2018-03-27T17:44:28.419Z,53.40
2018-03-27T17:46:55.927Z,54.00
2018-03-27T17:49:23.471Z,53.70
2018-03-27T17:51:50.972Z,53.50
2018-03-27T17:54:18.502Z,53.00
2018-03-27T17:56:45.990Z,52.70
2018-03-27T17:59:13.571Z,52.70
2018-03-27T18:01:41.817Z,52.40
2018-03-27T18:04:09.370Z,52.40
2018-03-27T18:06:36.984Z,52.80
2018-03-27T18:09:04.526Z,52.70
2018-03-27T18:11:32.043Z,53.10
2018-03-27T18:13:59.555Z,52.60
2018-03-27T18:16:27.069Z,52.50
2018-03-27T18:18:54.590Z,52.70
2018-03-27T18:21:22.110Z,52.80
2018-03-27T18:23:51.307Z,53.20
2018-03-27T18:26:19.619Z,53.10
2018-03-27T18:28:47.156Z,53.00
2018-03-27T18:31:15.520Z,53.10
2018-03-27T18:33:43.052Z,53.70
2018-03-27T18:36:10.533Z,53.80
2018-03-27T18:38:38.065Z,54.60
2018-03-27T18:41:05.604Z,53.90
2018-03-27T18:43:33.128Z,54.00
2018-03-27T18:46:00.706Z,54.10
2018-03-27T18:48:28.431Z,54.80
2018-03-27T18:50:55.945Z,55.00
2018-03-27T18:53:24.176Z,55.50
2018-03-27T18:55:51.742Z,55.50
2018-03-27T18:58:20.028Z,56.00
2018-03-27T19:00:48.290Z,56.30
2018-03-27T19:03:16.559Z,56.30
2018-03-27T19:05:44.083Z,56.20
2018-03-27T19:08:11.756Z,57.10
2018-03-27T19:10:39.305Z,56.70
2018-03-27T19:13:06.823Z,57.10
2018-03-27T19:15:34.347Z,57.70
2018-03-27T19:18:03.288Z,57.80
2018-03-27T19:20:30.802Z,58.20
2018-03-27T19:22:58.440Z,58.70
2018-03-27T19:25:25.946Z,59.70
2018-03-27T19:27:54.230Z,60.40
2018-03-27T19:30:21.733Z,60.40
2018-03-27T19:32:49.228Z,61.00
2018-03-27T19:35:17.486Z,62.90
2018-03-27T19:37:45.043Z,62.90
2018-03-27T19:40:12.522Z,63.40
2018-03-27T19:42:40.824Z,66.70
2018-03-27T19:45:08.297Z,66.70
2018-03-27T19:47:35.822Z,69.30
2018-03-27T19:50:04.101Z,74.40
2018-03-27T19:52:32.418Z,77.10
2018-03-27T19:54:59.978Z,77.10
2018-03-27T19:57:27.453Z,78.50
2018-03-27T19:59:54.992Z,80.20
2018-03-27T20:02:22.500Z,82.00
2018-03-27T20:04:51.497Z,82.90
2018-03-27T20:07:18.957Z,82.80
2018-03-27T20:09:47.446Z,84.00
2018-03-27T20:12:14.970Z,83.80
2018-03-27T20:14:42.526Z,84.60
2018-03-27T20:17:09.996Z,84.20
2018-03-27T20:19:37.472Z,84.40
2018-03-27T20:22:05.739Z,84.80
2018-03-27T20:24:33.274Z,84.80
2018-03-27T20:27:00.794Z,84.60
2018-03-27T20:29:28.288Z,84.40
2018-03-27T20:31:56.247Z,84.10
2018-03-27T20:34:23.733Z,84.20
2018-03-27T20:36:51.251Z,84.50
2018-03-27T20:39:18.729Z,84.30
2018-03-27T20:41:46.218Z,85.00
2018-03-27T20:44:14.488Z,85.60
2018-03-27T20:46:41.966Z,85.60
2018-03-27T20:49:10.308Z,88.00
2018-03-27T20:51:37.795Z,87.90
2018-03-27T20:54:05.294Z,88.10
2018-03-27T20:56:32.785Z,88.90
2018-03-27T20:59:00.278Z,90.20
2018-03-27T21:01:29.352Z,91.30
2018-03-27T21:03:56.843Z,91.20
2018-03-27T21:06:24.351Z,92.10
2018-03-27T21:08:51.869Z,92.50
2018-03-27T21:11:19.351Z,92.90
2018-03-27T21:13:46.952Z,93.10
2018-03-27T21:16:14.471Z,93.50
2018-03-27T21:18:41.932Z,93.70
2018-03-27T21:21:09.490Z,94.20
2018-03-27T21:23:37.720Z,94.40
2018-03-27T21:26:05.989Z,94.40
2018-03-27T21:28:34.242Z,94.70
2018-03-27T21:31:01.730Z,94.70
2018-03-27T21:33:29.962Z,95.00
2018-03-27T21:35:57.556Z,95.00
2018-03-27T21:38:25.812Z,95.20
2018-03-27T21:40:53.334Z,95.20
2018-03-27T21:43:20.817Z,95.10
2018-03-27T21:45:49.078Z,95.40
2018-03-27T21:48:16.578Z,95.40
2018-03-27T21:50:44.040Z,95.50
2018-03-27T21:53:11.548Z,95.60
2018-03-27T21:55:39.104Z,96.00
2018-03-27T21:58:06.608Z,96.00
2018-03-27T22:00:34.120Z,96.00
2018-03-27T22:03:01.619Z,96.00
2018-03-27T22:05:29.105Z,96.10
2018-03-27T22:07:57.600Z,96.20
2018-03-27T22:10:25.097Z,96.30
2018-03-27T22:12:52.572Z,96.30
2018-03-27T22:15:20.074Z,96.30
2018-03-27T22:17:47.545Z,96.40
2018-03-27T22:20:15.044Z,96.50
2018-03-27T22:22:42.520Z,96.50
2018-03-27T22:25:10.771Z,96.80
2018-03-27T22:27:38.247Z,96.80
2018-03-27T22:30:05.742Z,96.80
2018-03-27T22:32:33.219Z,96.90
2018-03-27T22:35:00.711Z,96.90
2018-03-27T22:37:28.187Z,97.10
2018-03-27T22:39:56.411Z,97.50
2018-03-27T22:42:23.971Z,97.50
2018-03-27T22:44:51.454Z,97.60
2018-03-27T22:47:18.933Z,97.70
2018-03-27T22:49:46.416Z,97.90
2018-03-27T22:52:14.684Z,98.20
2018-03-27T22:54:42.907Z,98.30
2018-03-27T22:57:10.447Z,98.20
2018-03-27T22:59:37.958Z,98.70
2018-03-27T23:02:05.478Z,98.40
2018-03-27T23:04:32.977Z,98.40
2018-03-27T23:07:00.431Z,98.50
2018-03-27T23:09:27.957Z,98.60
2018-03-27T23:11:55.435Z,98.70
2018-03-27T23:14:22.917Z,98.60
2018-03-27T23:16:50.375Z,98.70
2018-03-27T23:19:18.624Z,98.70
2018-03-27T23:21:46.098Z,98.70
2018-03-27T23:24:13.590Z,98.70
2018-03-27T23:26:41.109Z,98.60
2018-03-27T23:29:08.663Z,98.60
2018-03-27T23:31:36.189Z,98.70
2018-03-27T23:34:03.650Z,98.70
2018-03-27T23:36:31.138Z,98.80
2018-03-27T23:41:33.220Z,98.70
2018-03-27T23:44:00.766Z,98.70
2018-03-27T23:46:28.242Z,98.80
2018-03-27T23:48:55.690Z,98.90
2018-03-27T23:51:23.171Z,98.80
2018-03-27T23:53:51.499Z,98.60
2018-03-27T23:56:18.996Z,98.60
2018-03-27T23:58:46.472Z,98.60
